sensor_id;sensor_type;location;lat;lon;timestamp;pressure;altitude;pressure_sealevel;temperature;humidity
9281;BME280;4679;47.966;7.958;2023-06-22T06:09:29;96940.44;;;20.36;77.82
9281;BME280;4679;47.966;7.958;2023-06-22T06:11:31;96966.00;;;20.48;77.71
9281;BME280;4679;47.966;7.958;2023-06-22T06:13:33;96972.84;;;20.54;77.65
9281;BME280;4679;47.966;7.958;2023-06-22T06:15:35;96974.31;;;20.60;77.57
9281;BME280;4679;47.966;7.958;2023-06-22T06:17:45;96976.84;;;20.65;77.63
9281;BME280;4679;47.966;7.958;2023-06-22T06:19:46;96980.69;;;20.73;77.18
9281;BME280;4679;47.966;7.958;2023-06-22T06:21:48;96978.50;;;20.75;77.22
9281;BME280;4679;47.966;7.958;2023-06-22T06:23:50;96977.88;;;20.78;77.19
9281;BME280;4679;47.966;7.958;2023-06-22T06:25:54;96972.00;;;20.84;76.79
9281;BME280;4679;47.966;7.958;2023-06-22T06:27:56;96983.28;;;20.86;76.96
9281;BME280;4679;47.966;7.958;2023-06-22T06:29:58;96991.56;;;20.90;77.13
9281;BME280;4679;47.966;7.958;2023-06-22T06:32:00;96994.88;;;20.95;76.84
9281;BME280;4679;47.966;7.958;2023-06-22T06:34:01;96995.38;;;20.97;76.60
9281;BME280;4679;47.966;7.958;2023-06-22T06:36:03;96993.63;;;21.01;77.03
9281;BME280;4679;47.966;7.958;2023-06-22T06:38:05;97006.69;;;21.08;76.94
9281;BME280;4679;47.966;7.958;2023-06-22T06:40:08;97010.50;;;21.16;76.55
9281;BME280;4679;47.966;7.958;2023-06-22T06:42:12;97038.66;;;21.23;76.33
9281;BME280;4679;47.966;7.958;2023-06-22T06:44:14;97035.34;;;21.35;76.35
9281;BME280;4679;47.966;7.958;2023-06-22T06:46:15;97043.00;;;21.50;76.22
9281;BME280;4679;47.966;7.958;2023-06-22T06:48:19;97053.66;;;21.64;75.95
9281;BME280;4679;47.966;7.958;2023-06-22T06:50:21;97065.06;;;21.69;75.67
9281;BME280;4679;47.966;7.958;2023-06-22T06:52:22;97078.75;;;21.73;75.60
9281;BME280;4679;47.966;7.958;2023-06-22T06:54:24;97072.06;;;21.70;75.71
9281;BME280;4679;47.966;7.958;2023-06-22T06:56:27;97073.19;;;21.69;76.21
9281;BME280;4679;47.966;7.958;2023-06-22T06:58:32;97101.94;;;21.65;75.95
9281;BME280;4679;47.966;7.958;2023-06-22T07:00:33;97111.16;;;21.64;76.39
9281;BME280;4679;47.966;7.958;2023-06-22T07:02:36;97116.69;;;21.59;76.26
9281;BME280;4679;47.966;7.958;2023-06-22T07:04:37;97110.50;;;21.59;76.55
9281;BME280;4679;47.966;7.958;2023-06-22T07:06:39;97116.22;;;21.57;76.62
9281;BME280;4679;47.966;7.958;2023-06-22T07:08:42;97121.00;;;21.60;76.57
9281;BME280;4679;47.966;7.958;2023-06-22T07:10:44;97096.06;;;21.63;76.86
9281;BME280;4679;47.966;7.958;2023-06-22T07:12:45;97102.75;;;21.66;76.42
9281;BME280;4679;47.966;7.958;2023-06-22T07:14:48;97118.34;;;21.69;76.47
9281;BME280;4679;47.966;7.958;2023-06-22T07:16:51;97117.38;;;21.73;76.27
9281;BME280;4679;47.966;7.958;2023-06-22T07:18:53;97110.22;;;21.86;76.52
9281;BME280;4679;47.966;7.958;2023-06-22T07:20:54;97119.94;;;21.96;76.08
9281;BME280;4679;47.966;7.958;2023-06-22T07:22:56;97110.41;;;21.98;76.01
9281;BME280;4679;47.966;7.958;2023-06-22T07:24:58;97117.44;;;21.99;76.21
9281;BME280;4679;47.966;7.958;2023-06-22T07:27:00;97124.72;;;21.99;76.33
9281;BME280;4679;47.966;7.958;2023-06-22T07:29:03;97113.91;;;21.99;76.09
9281;BME280;4679;47.966;7.958;2023-06-22T07:31:07;97104.88;;;22.03;76.14
9281;BME280;4679;47.966;7.958;2023-06-22T07:33:08;97126.66;;;22.07;76.09
9281;BME280;4679;47.966;7.958;2023-06-22T07:35:10;97138.59;;;22.15;75.74
9281;BME280;4679;47.966;7.958;2023-06-22T07:37:12;97139.69;;;22.22;75.94
9281;BME280;4679;47.966;7.958;2023-06-22T07:39:13;97130.81;;;22.30;75.75
9281;BME280;4679;47.966;7.958;2023-06-22T07:41:15;97141.44;;;22.35;75.41
9281;BME280;4679;47.966;7.958;2023-06-22T07:43:17;97146.69;;;22.40;75.40
9281;BME280;4679;47.966;7.958;2023-06-22T07:45:19;97155.59;;;22.50;75.14
9281;BME280;4679;47.966;7.958;2023-06-22T07:49:25;97089.41;;;22.56;75.57
9281;BME280;4679;47.966;7.958;2023-06-22T07:51:27;97078.44;;;22.61;74.94
9281;BME280;4679;47.966;7.958;2023-06-22T07:53:29;97062.31;;;22.64;74.78
9281;BME280;4679;47.966;7.958;2023-06-22T07:55:31;97079.66;;;22.72;74.47
9281;BME280;4679;47.966;7.958;2023-06-22T07:57:32;97085.38;;;22.79;74.42
9281;BME280;4679;47.966;7.958;2023-06-22T07:59:34;97080.44;;;22.90;74.16
9281;BME280;4679;47.966;7.958;2023-06-22T08:01:36;97078.81;;;22.97;74.11
9281;BME280;4679;47.966;7.958;2023-06-22T08:03:40;97080.22;;;23.03;73.96
9281;BME280;4679;47.966;7.958;2023-06-22T08:05:41;97063.94;;;23.12;73.24
9281;BME280;4679;47.966;7.958;2023-06-22T08:07:43;97049.66;;;23.32;73.15
9281;BME280;4679;47.966;7.958;2023-06-22T08:09:46;97040.19;;;23.47;72.83
9281;BME280;4679;47.966;7.958;2023-06-22T08:11:48;97044.19;;;23.70;72.28
9281;BME280;4679;47.966;7.958;2023-06-22T08:13:50;97035.72;;;23.93;71.46
9281;BME280;4679;47.966;7.958;2023-06-22T08:15:52;97041.13;;;24.13;71.27
9281;BME280;4679;47.966;7.958;2023-06-22T08:17:54;97035.31;;;24.24;71.01
9281;BME280;4679;47.966;7.958;2023-06-22T08:19:57;97050.13;;;24.26;71.01
9281;BME280;4679;47.966;7.958;2023-06-22T08:21:58;97049.81;;;24.28;70.74
9281;BME280;4679;47.966;7.958;2023-06-22T08:24:00;97053.75;;;24.30;70.57
9281;BME280;4679;47.966;7.958;2023-06-22T08:26:02;97045.41;;;24.35;70.56
9281;BME280;4679;47.966;7.958;2023-06-22T08:28:04;97040.13;;;24.39;70.48
9281;BME280;4679;47.966;7.958;2023-06-22T08:30:07;97028.69;;;24.45;70.52
9281;BME280;4679;47.966;7.958;2023-06-22T08:32:09;97010.97;;;24.60;70.03
9281;BME280;4679;47.966;7.958;2023-06-22T08:34:10;97011.81;;;24.73;69.74
9281;BME280;4679;47.966;7.958;2023-06-22T08:36:13;97002.75;;;24.81;69.25
9281;BME280;4679;47.966;7.958;2023-06-22T08:38:16;96991.03;;;25.01;68.80
9281;BME280;4679;47.966;7.958;2023-06-22T08:40:19;97005.97;;;25.19;68.61
9281;BME280;4679;47.966;7.958;2023-06-22T08:42:21;97006.19;;;25.27;68.10
9281;BME280;4679;47.966;7.958;2023-06-22T08:44:25;97005.84;;;25.16;68.68
9281;BME280;4679;47.966;7.958;2023-06-22T08:46:26;97009.59;;;25.11;68.62
9281;BME280;4679;47.966;7.958;2023-06-22T08:48:33;96989.44;;;25.12;68.90
9281;BME280;4679;47.966;7.958;2023-06-22T08:50:35;96977.88;;;25.28;68.48
9281;BME280;4679;47.966;7.958;2023-06-22T08:52:38;96978.34;;;25.30;68.31
9281;BME280;4679;47.966;7.958;2023-06-22T08:54:41;96994.03;;;25.36;68.26
9281;BME280;4679;47.966;7.958;2023-06-22T08:56:43;96997.56;;;25.49;67.80
9281;BME280;4679;47.966;7.958;2023-06-22T08:58:45;96989.84;;;25.63;67.16
9281;BME280;4679;47.966;7.958;2023-06-22T09:00:46;96981.22;;;25.61;67.11
9281;BME280;4679;47.966;7.958;2023-06-22T09:02:48;96973.88;;;25.62;66.99
9281;BME280;4679;47.966;7.958;2023-06-22T09:04:50;96976.34;;;25.67;66.87
9281;BME280;4679;47.966;7.958;2023-06-22T09:06:55;96971.47;;;25.72;66.54
9281;BME280;4679;47.966;7.958;2023-06-22T09:08:59;96968.63;;;25.81;66.92
9281;BME280;4679;47.966;7.958;2023-06-22T09:11:01;96959.50;;;25.89;66.23
9281;BME280;4679;47.966;7.958;2023-06-22T09:13:02;96953.38;;;25.92;66.65
9281;BME280;4679;47.966;7.958;2023-06-22T09:15:05;96951.19;;;25.98;65.83
9281;BME280;4679;47.966;7.958;2023-06-22T09:17:07;96957.09;;;26.15;65.84
9281;BME280;4679;47.966;7.958;2023-06-22T09:19:09;96952.16;;;26.33;65.23
9281;BME280;4679;47.966;7.958;2023-06-22T09:21:11;96951.03;;;26.50;65.17
9281;BME280;4679;47.966;7.958;2023-06-22T09:23:13;96958.41;;;26.49;64.27
9281;BME280;4679;47.966;7.958;2023-06-22T09:25:16;96951.72;;;26.62;64.24
9281;BME280;4679;47.966;7.958;2023-06-22T09:27:20;96943.22;;;26.80;64.25
9281;BME280;4679;47.966;7.958;2023-06-22T09:29:22;96934.69;;;26.97;63.79
9281;BME280;4679;47.966;7.958;2023-06-22T09:31:24;96930.28;;;27.08;63.16
9281;BME280;4679;47.966;7.958;2023-06-22T09:33:27;96926.88;;;27.30;62.89
9281;BME280;4679;47.966;7.958;2023-06-22T09:35:28;96929.16;;;27.28;62.45
9281;BME280;4679;47.966;7.958;2023-06-22T09:37:30;96924.69;;;27.20;62.69
9281;BME280;4679;47.966;7.958;2023-06-22T09:39:32;96917.69;;;27.39;62.59
9281;BME280;4679;47.966;7.958;2023-06-22T09:41:35;96926.97;;;27.53;61.86
9281;BME280;4679;47.966;7.958;2023-06-22T09:43:36;96921.47;;;27.69;61.77
9281;BME280;4679;47.966;7.958;2023-06-22T09:45:38;96922.84;;;27.79;61.50
9281;BME280;4679;47.966;7.958;2023-06-22T09:47:40;96926.13;;;27.88;61.23
9281;BME280;4679;47.966;7.958;2023-06-22T09:49:42;96919.72;;;27.99;61.16
9281;BME280;4679;47.966;7.958;2023-06-22T09:51:45;96922.75;;;28.17;60.57
9281;BME280;4679;47.966;7.958;2023-06-22T09:53:47;96912.25;;;28.39;60.20
9281;BME280;4679;47.966;7.958;2023-06-22T09:55:48;96913.47;;;28.41;60.32
9281;BME280;4679;47.966;7.958;2023-06-22T09:57:51;96915.00;;;28.39;60.15
9281;BME280;4679;47.966;7.958;2023-06-22T09:59:53;96910.50;;;28.50;60.20
9281;BME280;4679;47.966;7.958;2023-06-22T10:01:54;96909.50;;;28.61;59.96
9281;BME280;4679;47.966;7.958;2023-06-22T10:03:56;96923.59;;;28.63;59.59
9281;BME280;4679;47.966;7.958;2023-06-22T10:05:58;96931.16;;;28.74;59.38
9281;BME280;4679;47.966;7.958;2023-06-22T10:08:00;96913.06;;;28.88;59.17
9281;BME280;4679;47.966;7.958;2023-06-22T10:10:02;96905.41;;;28.97;58.56
9281;BME280;4679;47.966;7.958;2023-06-22T10:12:04;96896.13;;;29.02;58.65
9281;BME280;4679;47.966;7.958;2023-06-22T10:14:07;96901.66;;;29.09;58.54
9281;BME280;4679;47.966;7.958;2023-06-22T10:16:09;96892.41;;;29.17;57.97
9281;BME280;4679;47.966;7.958;2023-06-22T10:18:11;96886.53;;;29.15;58.26
9281;BME280;4679;47.966;7.958;2023-06-22T10:20:13;96872.25;;;29.29;57.87
9281;BME280;4679;47.966;7.958;2023-06-22T10:22:15;96876.06;;;29.51;57.05
9281;BME280;4679;47.966;7.958;2023-06-22T10:24:17;96866.06;;;29.65;56.68
9281;BME280;4679;47.966;7.958;2023-06-22T10:26:19;96875.34;;;29.91;55.80
9281;BME280;4679;47.966;7.958;2023-06-22T10:28:20;96892.38;;;30.11;55.31
9281;BME280;4679;47.966;7.958;2023-06-22T10:30:23;96908.94;;;30.25;55.03
9281;BME280;4679;47.966;7.958;2023-06-22T10:32:25;96916.00;;;30.29;55.37
9281;BME280;4679;47.966;7.958;2023-06-22T10:34:28;96903.06;;;30.26;54.83
9281;BME280;4679;47.966;7.958;2023-06-22T10:36:30;96896.94;;;30.36;55.17
9281;BME280;4679;47.966;7.958;2023-06-22T10:38:32;96901.63;;;30.36;54.45
9281;BME280;4679;47.966;7.958;2023-06-22T10:40:34;96902.25;;;30.19;54.79
9281;BME280;4679;47.966;7.958;2023-06-22T10:42:35;96904.88;;;30.12;54.98
9281;BME280;4679;47.966;7.958;2023-06-22T10:44:37;96909.34;;;29.90;55.08
9281;BME280;4679;47.966;7.958;2023-06-22T10:46:40;96917.66;;;29.67;55.37
9281;BME280;4679;47.966;7.958;2023-06-22T10:48:42;96918.75;;;29.59;55.11
9281;BME280;4679;47.966;7.958;2023-06-22T10:50:44;96934.44;;;29.62;54.73
9281;BME280;4679;47.966;7.958;2023-06-22T10:52:45;96937.59;;;29.67;54.83
9281;BME280;4679;47.966;7.958;2023-06-22T10:54:47;96940.03;;;29.72;54.37
9281;BME280;4679;47.966;7.958;2023-06-22T10:56:49;96940.88;;;29.80;54.56
9281;BME280;4679;47.966;7.958;2023-06-22T10:58:50;96936.78;;;29.63;54.84
9281;BME280;4679;47.966;7.958;2023-06-22T11:00:52;96946.53;;;29.34;55.17
9281;BME280;4679;47.966;7.958;2023-06-22T11:02:55;96952.56;;;29.17;55.55
9281;BME280;4679;47.966;7.958;2023-06-22T11:04:58;96960.91;;;29.01;55.95
9281;BME280;4679;47.966;7.958;2023-06-22T11:07:01;96961.16;;;28.93;56.17
9281;BME280;4679;47.966;7.958;2023-06-22T11:09:02;96984.28;;;28.99;55.98
9281;BME280;4679;47.966;7.958;2023-06-22T11:11:05;96995.53;;;29.20;55.62
9281;BME280;4679;47.966;7.958;2023-06-22T11:13:06;96998.06;;;29.32;55.20
9281;BME280;4679;47.966;7.958;2023-06-22T11:15:10;97006.53;;;29.50;54.85
9281;BME280;4679;47.966;7.958;2023-06-22T11:17:12;96989.13;;;29.62;55.16
9281;BME280;4679;47.966;7.958;2023-06-22T11:19:16;96995.56;;;29.77;54.71
9281;BME280;4679;47.966;7.958;2023-06-22T11:21:18;96979.09;;;29.73;55.06
9281;BME280;4679;47.966;7.958;2023-06-22T11:23:20;96974.69;;;29.65;55.27
9281;BME280;4679;47.966;7.958;2023-06-22T11:25:21;96995.72;;;29.57;55.10
9281;BME280;4679;47.966;7.958;2023-06-22T11:27:23;96993.06;;;29.64;55.16
9281;BME280;4679;47.966;7.958;2023-06-22T11:29:25;96972.06;;;29.72;55.13
9281;BME280;4679;47.966;7.958;2023-06-22T11:31:26;96973.38;;;29.85;54.36
9281;BME280;4679;47.966;7.958;2023-06-22T11:33:28;96985.44;;;29.81;54.81
9281;BME280;4679;47.966;7.958;2023-06-22T11:35:31;96996.50;;;29.88;54.87
9281;BME280;4679;47.966;7.958;2023-06-22T11:37:32;96998.34;;;29.80;55.36
9281;BME280;4679;47.966;7.958;2023-06-22T11:39:34;97008.97;;;29.85;54.95
9281;BME280;4679;47.966;7.958;2023-06-22T11:41:36;97014.00;;;30.10;54.84
9281;BME280;4679;47.966;7.958;2023-06-22T11:43:38;97016.69;;;30.43;53.04
9281;BME280;4679;47.966;7.958;2023-06-22T11:45:39;97000.84;;;30.59;51.96
9281;BME280;4679;47.966;7.958;2023-06-22T11:47:41;96998.47;;;30.58;51.65
9281;BME280;4679;47.966;7.958;2023-06-22T11:49:43;97012.16;;;30.54;50.67
9281;BME280;4679;47.966;7.958;2023-06-22T11:51:46;96987.06;;;30.52;50.58
9281;BME280;4679;47.966;7.958;2023-06-22T11:53:47;96982.69;;;30.48;49.89
9281;BME280;4679;47.966;7.958;2023-06-22T11:55:49;96975.22;;;30.44;49.38
9281;BME280;4679;47.966;7.958;2023-06-22T11:57:53;96983.03;;;30.39;48.96
9281;BME280;4679;47.966;7.958;2023-06-22T11:59:55;96975.13;;;30.34;48.53
9281;BME280;4679;47.966;7.958;2023-06-22T12:01:57;96983.22;;;30.20;48.58
9281;BME280;4679;47.966;7.958;2023-06-22T12:03:59;96976.03;;;30.08;48.27
9281;BME280;4679;47.966;7.958;2023-06-22T12:06:01;96968.16;;;30.03;47.74
9281;BME280;4679;47.966;7.958;2023-06-22T12:08:04;96964.63;;;30.02;46.97
9281;BME280;4679;47.966;7.958;2023-06-22T12:10:07;96964.22;;;30.00;47.33
9281;BME280;4679;47.966;7.958;2023-06-22T12:12:08;96968.47;;;29.98;46.51
9281;BME280;4679;47.966;7.958;2023-06-22T12:14:10;96967.69;;;29.97;46.19
9281;BME280;4679;47.966;7.958;2023-06-22T12:16:12;96964.91;;;29.94;46.20
9281;BME280;4679;47.966;7.958;2023-06-22T12:18:14;96952.66;;;29.84;46.04
9281;BME280;4679;47.966;7.958;2023-06-22T12:20:15;96962.81;;;29.84;45.67
9281;BME280;4679;47.966;7.958;2023-06-22T12:22:17;96966.06;;;29.93;45.47
9281;BME280;4679;47.966;7.958;2023-06-22T12:24:20;96973.13;;;29.94;45.24
9281;BME280;4679;47.966;7.958;2023-06-22T12:26:22;96980.22;;;29.98;44.90
9281;BME280;4679;47.966;7.958;2023-06-22T12:28:24;96979.84;;;30.00;44.57
9281;BME280;4679;47.966;7.958;2023-06-22T12:30:26;96987.69;;;30.01;44.53
9281;BME280;4679;47.966;7.958;2023-06-22T12:32:28;96989.91;;;29.92;44.47
9281;BME280;4679;47.966;7.958;2023-06-22T12:34:30;97003.16;;;29.90;44.56
9281;BME280;4679;47.966;7.958;2023-06-22T12:36:32;97007.38;;;29.84;44.37
9281;BME280;4679;47.966;7.958;2023-06-22T12:38:34;97038.59;;;29.80;44.70
9281;BME280;4679;47.966;7.958;2023-06-22T12:40:37;97048.56;;;29.65;44.77
9281;BME280;4679;47.966;7.958;2023-06-22T12:42:39;97056.81;;;29.42;45.34
9281;BME280;4679;47.966;7.958;2023-06-22T12:44:42;97052.41;;;29.11;45.88
9281;BME280;4679;47.966;7.958;2023-06-22T12:46:44;97050.53;;;28.92;46.67
9281;BME280;4679;47.966;7.958;2023-06-22T12:48:46;97051.56;;;28.84;47.23
9281;BME280;4679;47.966;7.958;2023-06-22T12:50:48;97045.56;;;28.79;47.71
9281;BME280;4679;47.966;7.958;2023-06-22T12:52:50;97052.81;;;28.67;48.52
9281;BME280;4679;47.966;7.958;2023-06-22T12:54:52;97048.66;;;28.54;48.71
9281;BME280;4679;47.966;7.958;2023-06-22T12:56:56;97038.75;;;28.46;49.39
9281;BME280;4679;47.966;7.958;2023-06-22T12:58:58;97034.00;;;28.43;49.63
9281;BME280;4679;47.966;7.958;2023-06-22T13:01:02;97033.53;;;28.38;50.07
9281;BME280;4679;47.966;7.958;2023-06-22T13:03:04;97034.59;;;28.33;50.26
9281;BME280;4679;47.966;7.958;2023-06-22T13:05:06;97030.66;;;28.30;50.26
9281;BME280;4679;47.966;7.958;2023-06-22T13:07:09;97033.88;;;28.36;50.60
9281;BME280;4679;47.966;7.958;2023-06-22T13:09:11;97030.63;;;28.50;50.56
9281;BME280;4679;47.966;7.958;2023-06-22T13:11:13;97027.59;;;28.78;49.82
9281;BME280;4679;47.966;7.958;2023-06-22T13:13:16;97023.50;;;29.10;49.46
9281;BME280;4679;47.966;7.958;2023-06-22T13:15:17;97017.41;;;29.20;49.34
9281;BME280;4679;47.966;7.958;2023-06-22T13:17:20;97024.06;;;29.23;49.36
9281;BME280;4679;47.966;7.958;2023-06-22T13:19:22;97018.75;;;29.07;49.70
9281;BME280;4679;47.966;7.958;2023-06-22T13:21:24;97017.28;;;28.87;50.12
9281;BME280;4679;47.966;7.958;2023-06-22T13:23:25;97002.97;;;28.74;50.39
9281;BME280;4679;47.966;7.958;2023-06-22T13:25:27;97015.72;;;28.66;50.47
9281;BME280;4679;47.966;7.958;2023-06-22T13:27:29;97012.91;;;28.63;50.43
9281;BME280;4679;47.966;7.958;2023-06-22T13:29:32;97018.09;;;28.68;50.53
9281;BME280;4679;47.966;7.958;2023-06-22T13:31:34;97023.63;;;28.72;50.50
9281;BME280;4679;47.966;7.958;2023-06-22T13:33:37;97013.84;;;28.93;49.84
9281;BME280;4679;47.966;7.958;2023-06-22T13:35:41;97020.34;;;29.08;50.01
9281;BME280;4679;47.966;7.958;2023-06-22T13:37:43;97020.47;;;29.15;49.60
9281;BME280;4679;47.966;7.958;2023-06-22T13:39:45;97013.97;;;29.00;50.07
9281;BME280;4679;47.966;7.958;2023-06-22T13:41:47;97022.41;;;28.92;50.38
9281;BME280;4679;47.966;7.958;2023-06-22T13:43:49;97019.09;;;28.79;50.72
9281;BME280;4679;47.966;7.958;2023-06-22T13:45:52;97026.63;;;28.66;50.84
9281;BME280;4679;47.966;7.958;2023-06-22T13:47:54;97028.09;;;28.60;51.00
9281;BME280;4679;47.966;7.958;2023-06-22T13:49:56;97044.22;;;28.46;51.64
9281;BME280;4679;47.966;7.958;2023-06-22T13:51:58;97059.25;;;28.37;52.10
9281;BME280;4679;47.966;7.958;2023-06-22T13:54:00;97057.28;;;28.18;52.29
9281;BME280;4679;47.966;7.958;2023-06-22T13:56:03;97058.84;;;27.99;52.65
9281;BME280;4679;47.966;7.958;2023-06-22T13:58:05;97050.19;;;27.94;52.63
9281;BME280;4679;47.966;7.958;2023-06-22T14:00:07;97033.28;;;27.88;52.91
9281;BME280;4679;47.966;7.958;2023-06-22T14:02:11;97025.97;;;27.73;53.24
9281;BME280;4679;47.966;7.958;2023-06-22T14:04:13;97006.66;;;27.62;53.92
9281;BME280;4679;47.966;7.958;2023-06-22T14:06:15;96996.81;;;27.42;54.07
9281;BME280;4679;47.966;7.958;2023-06-22T14:08:18;96994.56;;;27.28;54.08
9281;BME280;4679;47.966;7.958;2023-06-22T14:10:20;96981.84;;;27.17;54.81
9281;BME280;4679;47.966;7.958;2023-06-22T14:12:22;96985.91;;;27.07;54.71
9281;BME280;4679;47.966;7.958;2023-06-22T14:14:24;96984.31;;;27.06;55.30
9281;BME280;4679;47.966;7.958;2023-06-22T14:16:27;96979.22;;;27.05;55.38
9281;BME280;4679;47.966;7.958;2023-06-22T14:18:30;96995.75;;;26.96;55.29
9281;BME280;4679;47.966;7.958;2023-06-22T14:20:31;97000.75;;;26.94;55.56
9281;BME280;4679;47.966;7.958;2023-06-22T14:22:33;96987.38;;;26.89;55.51
9281;BME280;4679;47.966;7.958;2023-06-22T14:24:35;96980.00;;;26.74;55.89
9281;BME280;4679;47.966;7.958;2023-06-22T14:26:37;96966.41;;;26.58;56.68
9281;BME280;4679;47.966;7.958;2023-06-22T14:28:39;96972.91;;;26.53;56.78
9281;BME280;4679;47.966;7.958;2023-06-22T14:30:40;96974.59;;;26.58;56.23
9281;BME280;4679;47.966;7.958;2023-06-22T14:32:43;96970.28;;;26.57;56.12
9281;BME280;4679;47.966;7.958;2023-06-22T14:34:47;96966.31;;;26.54;56.69
9281;BME280;4679;47.966;7.958;2023-06-22T14:36:50;96968.59;;;26.52;56.88
9281;BME280;4679;47.966;7.958;2023-06-22T14:38:52;96952.97;;;26.49;56.62
9281;BME280;4679;47.966;7.958;2023-06-22T14:40:53;96960.78;;;26.51;56.34
9281;BME280;4679;47.966;7.958;2023-06-22T14:42:55;96951.03;;;26.50;56.93
9281;BME280;4679;47.966;7.958;2023-06-22T14:44:57;96959.44;;;26.45;57.20
9281;BME280;4679;47.966;7.958;2023-06-22T14:46:58;96968.50;;;26.49;57.06
9281;BME280;4679;47.966;7.958;2023-06-22T14:49:00;96970.44;;;26.48;56.89
9281;BME280;4679;47.966;7.958;2023-06-22T14:51:04;96954.00;;;26.45;57.32
9281;BME280;4679;47.966;7.958;2023-06-22T14:53:06;96951.56;;;26.40;57.88
9281;BME280;4679;47.966;7.958;2023-06-22T14:55:08;96970.13;;;26.22;58.52
9281;BME280;4679;47.966;7.958;2023-06-22T14:57:10;96975.00;;;26.16;58.13
9281;BME280;4679;47.966;7.958;2023-06-22T14:59:12;96971.66;;;26.07;58.59
9281;BME280;4679;47.966;7.958;2023-06-22T15:01:15;96984.53;;;25.95;59.11
9281;BME280;4679;47.966;7.958;2023-06-22T15:03:17;96990.66;;;25.91;58.98
9281;BME280;4679;47.966;7.958;2023-06-22T15:05:22;96977.75;;;25.88;59.21
9281;BME280;4679;47.966;7.958;2023-06-22T15:07:25;96971.41;;;25.84;59.88
9281;BME280;4679;47.966;7.958;2023-06-22T15:09:27;96961.25;;;25.81;59.51
9281;BME280;4679;47.966;7.958;2023-06-22T15:11:29;96953.56;;;25.71;59.51
9281;BME280;4679;47.966;7.958;2023-06-22T15:13:31;96958.38;;;25.62;59.62
9281;BME280;4679;47.966;7.958;2023-06-22T15:15:34;96975.22;;;25.55;59.78
9281;BME280;4679;47.966;7.958;2023-06-22T15:17:36;96959.25;;;25.54;59.42
9281;BME280;4679;47.966;7.958;2023-06-22T15:19:37;96971.81;;;25.58;58.97
9281;BME280;4679;47.966;7.958;2023-06-22T15:21:39;96964.34;;;25.68;58.34
9281;BME280;4679;47.966;7.958;2023-06-22T15:23:42;96962.16;;;25.73;58.25
9281;BME280;4679;47.966;7.958;2023-06-22T15:25:44;96942.81;;;25.75;58.49
9281;BME280;4679;47.966;7.958;2023-06-22T15:27:46;96943.59;;;25.75;57.89
9281;BME280;4679;47.966;7.958;2023-06-22T15:29:47;96938.84;;;25.72;58.35
9281;BME280;4679;47.966;7.958;2023-06-22T15:31:49;96949.94;;;25.67;58.37
9281;BME280;4679;47.966;7.958;2023-06-22T15:33:51;96951.31;;;25.61;57.96
9281;BME280;4679;47.966;7.958;2023-06-22T15:35:52;96954.03;;;25.61;57.73
9281;BME280;4679;47.966;7.958;2023-06-22T15:37:56;96947.69;;;25.57;58.03
9281;BME280;4679;47.966;7.958;2023-06-22T15:39:59;96941.47;;;25.56;57.62
9281;BME280;4679;47.966;7.958;2023-06-22T15:42:00;96939.19;;;25.58;57.50
9281;BME280;4679;47.966;7.958;2023-06-22T15:44:02;96937.97;;;25.56;57.61
9281;BME280;4679;47.966;7.958;2023-06-22T15:46:04;96924.38;;;25.56;57.54
9281;BME280;4679;47.966;7.958;2023-06-22T15:48:05;96932.88;;;25.54;57.04
9281;BME280;4679;47.966;7.958;2023-06-22T15:50:08;96933.66;;;25.55;57.43
9281;BME280;4679;47.966;7.958;2023-06-22T15:52:10;96930.59;;;25.56;56.93
9281;BME280;4679;47.966;7.958;2023-06-22T15:54:12;96926.75;;;25.57;57.23
9281;BME280;4679;47.966;7.958;2023-06-22T15:56:15;96925.28;;;25.60;57.03
9281;BME280;4679;47.966;7.958;2023-06-22T15:58:17;96931.50;;;25.61;56.62
9281;BME280;4679;47.966;7.958;2023-06-22T16:00:18;96925.28;;;25.60;56.36
9281;BME280;4679;47.966;7.958;2023-06-22T16:02:21;96938.56;;;25.62;56.43
9281;BME280;4679;47.966;7.958;2023-06-22T16:04:23;96936.16;;;25.60;56.05
9281;BME280;4679;47.966;7.958;2023-06-22T16:06:24;96937.16;;;25.55;56.50
9281;BME280;4679;47.966;7.958;2023-06-22T16:08:26;96937.50;;;25.54;56.24
9281;BME280;4679;47.966;7.958;2023-06-22T16:10:30;96943.75;;;25.54;56.28
9281;BME280;4679;47.966;7.958;2023-06-22T16:12:34;96951.56;;;25.56;56.29
9281;BME280;4679;47.966;7.958;2023-06-22T16:14:36;96963.22;;;25.56;56.17
9281;BME280;4679;47.966;7.958;2023-06-22T16:16:38;96951.09;;;25.54;56.09
9281;BME280;4679;47.966;7.958;2023-06-22T16:18:39;96956.44;;;25.50;56.65
9281;BME280;4679;47.966;7.958;2023-06-22T16:20:42;96957.47;;;25.46;56.54
9281;BME280;4679;47.966;7.958;2023-06-22T16:22:46;96959.63;;;25.40;56.50
9281;BME280;4679;47.966;7.958;2023-06-22T16:24:48;96964.06;;;25.33;56.37
9281;BME280;4679;47.966;7.958;2023-06-22T16:26:50;96961.59;;;25.28;56.66
9281;BME280;4679;47.966;7.958;2023-06-22T16:28:53;96944.72;;;25.22;56.96
9281;BME280;4679;47.966;7.958;2023-06-22T16:30:55;96930.59;;;25.16;56.68
9281;BME280;4679;47.966;7.958;2023-06-22T16:32:56;96905.72;;;25.14;56.86
9281;BME280;4679;47.966;7.958;2023-06-22T16:34:59;96882.41;;;25.13;57.02
9281;BME280;4679;47.966;7.958;2023-06-22T16:37:00;96892.03;;;25.11;57.09
9281;BME280;4679;47.966;7.958;2023-06-22T16:39:02;96913.50;;;24.92;57.42
9281;BME280;4679;47.966;7.958;2023-06-22T16:41:05;96942.03;;;24.73;57.85
9281;BME280;4679;47.966;7.958;2023-06-22T16:43:07;96955.81;;;24.56;58.06
9281;BME280;4679;47.966;7.958;2023-06-22T16:45:12;96957.75;;;24.56;58.23
9281;BME280;4679;47.966;7.958;2023-06-22T16:47:14;96954.13;;;24.51;58.31
9281;BME280;4679;47.966;7.958;2023-06-22T16:49:16;96945.72;;;24.44;58.53
9281;BME280;4679;47.966;7.958;2023-06-22T16:51:17;96933.09;;;24.48;58.45
9281;BME280;4679;47.966;7.958;2023-06-22T16:53:19;96930.94;;;24.54;58.19
9281;BME280;4679;47.966;7.958;2023-06-22T16:55:24;96921.13;;;24.74;57.86
9281;BME280;4679;47.966;7.958;2023-06-22T16:57:28;96914.09;;;24.85;57.67
9281;BME280;4679;47.966;7.958;2023-06-22T16:59:30;96904.38;;;24.84;57.41
9281;BME280;4679;47.966;7.958;2023-06-22T17:01:33;96916.38;;;24.71;57.83
9281;BME280;4679;47.966;7.958;2023-06-22T17:03:48;96928.03;;;24.59;57.88
9281;BME280;4679;47.966;7.958;2023-06-22T17:05:53;96939.09;;;24.54;58.23
9281;BME280;4679;47.966;7.958;2023-06-22T17:07:58;96946.09;;;24.55;58.14
9281;BME280;4679;47.966;7.958;2023-06-22T17:10:02;96949.59;;;24.56;58.19
9281;BME280;4679;47.966;7.958;2023-06-22T17:12:08;96946.78;;;24.52;58.26
9281;BME280;4679;47.966;7.958;2023-06-22T17:14:11;96942.59;;;24.42;58.72
9281;BME280;4679;47.966;7.958;2023-06-22T17:16:13;96936.13;;;24.35;58.77